createdAt,value
2022-11-25T00:00:46.220Z,97451.63
2022-11-25T00:03:50.215Z,97471.50
2022-11-25T00:06:54.338Z,97470.13
2022-11-25T00:09:58.253Z,97460.19
2022-11-25T00:13:02.099Z,97455.28
2022-11-25T00:16:09.296Z,97444.41
2022-11-25T00:19:13.351Z,97452.75
2022-11-25T00:22:17.183Z,97443.25
2022-11-25T00:25:21.281Z,97447.22
2022-11-25T00:28:25.256Z,97441.09
2022-11-25T00:31:29.397Z,97441.03
2022-11-25T00:34:34.957Z,97442.84
2022-11-25T00:37:39.148Z,97440.09
2022-11-25T00:40:43.483Z,97440.66
2022-11-25T00:43:47.390Z,97422.47
2022-11-25T00:46:51.438Z,97414.34
2022-11-25T00:49:55.465Z,97420.19
2022-11-25T00:52:59.269Z,97416.31
2022-11-25T00:56:03.637Z,97422.69
2022-11-25T00:59:07.779Z,97419.38
2022-11-25T01:02:11.954Z,97419.59
2022-11-25T01:05:15.984Z,97417.19
2022-11-25T01:08:20.033Z,97419.47
2022-11-25T01:11:24.107Z,97416.94
2022-11-25T01:14:28.434Z,97411.44
2022-11-25T01:17:32.210Z,97419.22
2022-11-25T01:20:36.162Z,97428.28
2022-11-25T01:23:40.093Z,97440.69
2022-11-25T01:26:44.321Z,97442.22
2022-11-25T01:29:48.427Z,97441.78
2022-11-25T01:32:52.354Z,97437.97
2022-11-25T01:35:56.678Z,97439.16
2022-11-25T01:39:03.775Z,97442.56
2022-11-25T01:42:07.944Z,97436.97
2022-11-25T01:45:11.756Z,97428.75
2022-11-25T01:48:16.991Z,97431.59
2022-11-25T01:51:22.809Z,97432.88
2022-11-25T01:54:27.119Z,97420.63
2022-11-25T01:57:31.318Z,97425.88
2022-11-25T02:00:35.408Z,97431.38
2022-11-25T02:03:39.350Z,97433.06
2022-11-25T02:06:43.496Z,97440.66
2022-11-25T02:09:51.824Z,97438.06
2022-11-25T02:12:56.070Z,97439.00
2022-11-25T02:16:00.300Z,97428.63
2022-11-25T02:19:04.413Z,97433.50
2022-11-25T02:22:08.268Z,97441.88
2022-11-25T02:25:12.486Z,97445.31
2022-11-25T02:28:16.346Z,97446.59
2022-11-25T02:31:20.436Z,97456.50
2022-11-25T02:34:24.392Z,97457.97
2022-11-25T02:37:28.315Z,97453.16
2022-11-25T02:40:32.496Z,97445.88
2022-11-25T02:43:36.417Z,97446.69
2022-11-25T02:46:40.500Z,97439.16
2022-11-25T02:49:44.574Z,97436.72
2022-11-25T02:52:48.860Z,97437.19
2022-11-25T02:55:54.720Z,97437.81
2022-11-25T02:58:58.865Z,97436.63
2022-11-25T03:02:03.179Z,97439.94
2022-11-25T03:05:07.575Z,97443.34
2022-11-25T03:08:12.933Z,97447.38
2022-11-25T03:11:16.775Z,97440.16
2022-11-25T03:14:21.892Z,97448.41
2022-11-25T03:17:27.863Z,97439.56
2022-11-25T03:20:32.226Z,97439.28
2022-11-25T03:23:37.943Z,97438.31
2022-11-25T03:26:41.929Z,97436.16
2022-11-25T03:29:45.953Z,97433.72
2022-11-25T03:32:50.078Z,97431.50
2022-11-25T03:35:54.226Z,97432.66
2022-11-25T03:38:58.152Z,97434.75
2022-11-25T03:42:02.235Z,97434.88
2022-11-25T03:45:06.408Z,97432.00
2022-11-25T03:48:10.287Z,97433.66
2022-11-25T03:51:14.544Z,97428.34
2022-11-25T03:54:18.270Z,97427.41
2022-11-25T03:57:22.468Z,97430.59
2022-11-25T04:00:26.463Z,97432.63
2022-11-25T04:03:30.445Z,97435.50
2022-11-25T04:06:37.040Z,97439.06
2022-11-25T04:09:41.237Z,97435.22
2022-11-25T04:12:45.140Z,97441.56
2022-11-25T04:15:49.338Z,97443.84
2022-11-25T04:18:53.489Z,97439.88
2022-11-25T04:21:57.228Z,97445.63
2022-11-25T04:25:01.294Z,97454.41
2022-11-25T04:28:05.062Z,97472.69
2022-11-25T04:31:09.488Z,97467.72
2022-11-25T04:34:13.120Z,97474.59
2022-11-25T04:37:17.054Z,97478.22
2022-11-25T04:40:21.236Z,97474.44
2022-11-25T04:43:25.545Z,97479.97
2022-11-25T04:46:31.281Z,97480.19
2022-11-25T04:49:35.378Z,97473.22
2022-11-25T04:52:39.209Z,97473.97
2022-11-25T04:55:43.131Z,97466.19
2022-11-25T04:58:47.355Z,97471.50
2022-11-25T05:01:51.388Z,97481.63
2022-11-25T05:04:55.048Z,97469.84
2022-11-25T05:07:59.161Z,97461.22
2022-11-25T05:11:04.792Z,97466.72
2022-11-25T05:14:08.796Z,97461.97
2022-11-25T05:17:13.182Z,97453.03
2022-11-25T05:20:17.369Z,97449.13
2022-11-25T05:23:21.453Z,97454.84
2022-11-25T05:26:25.455Z,97446.94
2022-11-25T05:29:29.667Z,97440.44
2022-11-25T05:32:33.885Z,97449.91
2022-11-25T05:35:48.001Z,97455.84
2022-11-25T05:38:52.393Z,97451.00
2022-11-25T05:41:56.490Z,97454.69
2022-11-25T05:45:00.299Z,97455.16
2022-11-25T05:48:04.307Z,97466.53
2022-11-25T05:51:10.267Z,97473.84
2022-11-25T05:54:14.952Z,97480.13
2022-11-25T05:57:19.107Z,97484.72
2022-11-25T06:00:26.524Z,97486.22
2022-11-25T06:03:30.569Z,97495.59
2022-11-25T06:06:36.012Z,97496.78
2022-11-25T06:09:40.422Z,97497.72
2022-11-25T06:12:44.318Z,97496.25
2022-11-25T06:15:48.558Z,97497.00
2022-11-25T06:18:52.562Z,97505.03
2022-11-25T06:21:56.674Z,97508.31
2022-11-25T06:25:03.644Z,97507.41
2022-11-25T06:28:13.665Z,97509.22
2022-11-25T06:31:19.946Z,97513.41
2022-11-25T06:34:24.199Z,97521.22
2022-11-25T06:37:28.174Z,97519.22
2022-11-25T06:40:32.344Z,97525.97
2022-11-25T06:43:36.276Z,97522.63
2022-11-25T06:46:40.393Z,97528.56
2022-11-25T06:49:44.238Z,97536.75
2022-11-25T06:52:50.375Z,97539.81
2022-11-25T06:55:55.022Z,97546.81
2022-11-25T06:59:01.703Z,97554.31
2022-11-25T07:02:06.270Z,97551.41
2022-11-25T07:05:15.365Z,97555.94
2022-11-25T07:08:21.362Z,97550.59
2022-11-25T07:11:25.147Z,97560.75
2022-11-25T07:14:29.185Z,97572.50
2022-11-25T07:17:33.268Z,97567.97
2022-11-25T07:20:37.389Z,97566.25
2022-11-25T07:23:41.506Z,97564.75
2022-11-25T07:26:45.531Z,97559.91
2022-11-25T07:30:10.776Z,97556.41
2022-11-25T07:33:13.378Z,97558.69
2022-11-25T07:36:17.629Z,97559.09
2022-11-25T07:39:21.654Z,97563.84
2022-11-25T07:42:25.482Z,97571.06
2022-11-25T07:45:29.459Z,97562.84
2022-11-25T07:48:33.424Z,97579.66
2022-11-25T07:51:37.514Z,97586.81
2022-11-25T07:54:41.438Z,97579.28
2022-11-25T07:57:45.339Z,97589.28
2022-11-25T08:00:49.296Z,97588.66
2022-11-25T08:04:04.050Z,97581.28
2022-11-25T08:07:07.980Z,97587.22
2022-11-25T08:10:11.850Z,97588.31
2022-11-25T08:13:17.876Z,97598.41
2022-11-25T08:16:21.999Z,97598.06
2022-11-25T08:19:31.319Z,97608.38
2022-11-25T08:22:35.350Z,97613.44
2022-11-25T08:25:39.166Z,97621.44
2022-11-25T08:28:43.166Z,97624.66
2022-11-25T08:31:47.415Z,97634.34
2022-11-25T08:34:51.168Z,97643.66
2022-11-25T08:37:55.116Z,97641.63
2022-11-25T08:41:01.180Z,97651.19
2022-11-25T08:44:05.231Z,97661.59
2022-11-25T08:47:09.310Z,97665.88
2022-11-25T08:50:13.555Z,97669.44
2022-11-25T08:53:18.675Z,97674.53
2022-11-25T08:56:26.098Z,97683.09
2022-11-25T08:59:30.318Z,97691.16
2022-11-25T09:02:34.401Z,97696.78
2022-11-25T09:05:38.489Z,97698.53
2022-11-25T09:08:42.489Z,97699.31
2022-11-25T09:11:46.805Z,97710.31
2022-11-25T09:14:50.847Z,97704.22
2022-11-25T09:17:54.950Z,97712.56
2022-11-25T09:20:59.314Z,97699.47
2022-11-25T09:24:03.142Z,97697.03
2022-11-25T09:27:07.367Z,97707.88
2022-11-25T09:30:11.255Z,97702.69
2022-11-25T09:33:15.460Z,97701.00
2022-11-25T09:36:19.548Z,97701.63
2022-11-25T09:39:23.615Z,97693.25
2022-11-25T09:42:27.655Z,97683.75
2022-11-25T09:45:31.620Z,97676.91
2022-11-25T09:48:35.662Z,97673.34
2022-11-25T09:51:39.805Z,97669.16
2022-11-25T09:54:43.774Z,97666.44
2022-11-25T09:57:47.708Z,97665.19
2022-11-25T10:00:51.953Z,97657.50
2022-11-25T10:03:56.118Z,97653.88
2022-11-25T10:07:00.358Z,97668.06
2022-11-25T10:10:04.298Z,97672.91
2022-11-25T10:13:08.021Z,97663.97
2022-11-25T10:16:12.206Z,97693.66
2022-11-25T10:19:16.367Z,97680.31
2022-11-25T10:22:20.247Z,97674.59
2022-11-25T10:25:24.335Z,97664.06
2022-11-25T10:28:28.496Z,97660.44
2022-11-25T10:31:32.860Z,97671.78
2022-11-25T10:34:37.099Z,97670.78
2022-11-25T10:37:41.191Z,97671.81
2022-11-25T10:40:45.050Z,97663.75
2022-11-25T10:43:48.989Z,97662.22
2022-11-25T10:50:17.019Z,97659.03
2022-11-25T10:53:20.935Z,97659.84
2022-11-25T10:56:25.015Z,97665.47
2022-11-25T10:59:28.696Z,97670.72
2022-11-25T11:02:33.012Z,97669.81
2022-11-25T11:05:36.751Z,97670.25
2022-11-25T11:08:40.523Z,97665.88
2022-11-25T11:11:46.861Z,97673.47
2022-11-25T11:14:50.642Z,97673.28
2022-11-25T11:17:54.738Z,97672.94
2022-11-25T11:20:58.844Z,97677.97
2022-11-25T11:24:02.890Z,97685.97
2022-11-25T11:27:06.896Z,97684.94
2022-11-25T11:30:11.187Z,97689.84
2022-11-25T11:33:15.311Z,97689.59
2022-11-25T11:36:20.755Z,97684.63
2022-11-25T11:39:24.951Z,97683.91
2022-11-25T11:42:28.458Z,97685.63
2022-11-25T11:45:32.609Z,97682.25
2022-11-25T11:48:36.881Z,97682.97
2022-11-25T11:51:41.049Z,97692.50
2022-11-25T11:54:46.968Z,97701.31
2022-11-25T11:57:51.008Z,97703.00
2022-11-25T12:00:55.316Z,97707.25
2022-11-25T12:03:59.445Z,97703.38
2022-11-25T12:07:03.460Z,97703.06
2022-11-25T12:10:07.423Z,97704.66
2022-11-25T12:13:11.379Z,97709.56
2022-11-25T12:16:15.572Z,97711.69
2022-11-25T12:19:19.485Z,97712.97
2022-11-25T12:22:23.318Z,97715.88
2022-11-25T12:25:27.326Z,97724.00
2022-11-25T12:28:31.398Z,97718.69
2022-11-25T12:31:35.647Z,97718.00
2022-11-25T12:34:40.691Z,97718.31
2022-11-25T12:37:44.687Z,97715.53
2022-11-25T12:40:48.679Z,97724.19
2022-11-25T12:43:52.715Z,97727.72
2022-11-25T12:46:56.860Z,97732.81
2022-11-25T12:50:00.878Z,97736.13
2022-11-25T12:53:04.745Z,97730.38
2022-11-25T12:56:08.756Z,97736.22
2022-11-25T12:59:12.812Z,97745.38
2022-11-25T13:02:17.221Z,97746.72
2022-11-25T13:08:44.798Z,97755.63
2022-11-25T13:11:49.359Z,97747.59
2022-11-25T13:14:54.094Z,97757.16
2022-11-25T13:17:58.497Z,97758.41
2022-11-25T13:21:02.344Z,97756.75
2022-11-25T13:24:06.605Z,97757.81
2022-11-25T13:27:10.600Z,97759.19
2022-11-25T13:30:14.427Z,97751.56
2022-11-25T13:33:18.523Z,97758.25
2022-11-25T13:36:22.626Z,97757.09
2022-11-25T13:39:26.479Z,97761.00
2022-11-25T13:42:30.528Z,97769.28
2022-11-25T13:45:34.417Z,97763.81
2022-11-25T13:48:38.547Z,97761.88
2022-11-25T13:51:42.448Z,97765.81
2022-11-25T13:54:46.448Z,97771.09
2022-11-25T13:57:50.575Z,97767.59
2022-11-25T14:00:54.793Z,97773.50
2022-11-25T14:03:58.860Z,97784.63
2022-11-25T14:07:02.859Z,97785.84
2022-11-25T14:10:06.740Z,97781.78
2022-11-25T14:13:11.709Z,97773.78
2022-11-25T14:16:15.868Z,97782.53
2022-11-25T14:19:51.291Z,97783.69
2022-11-25T14:22:44.341Z,97792.81
2022-11-25T14:25:49.771Z,97790.00
2022-11-25T14:28:56.779Z,97787.25
2022-11-25T14:32:00.723Z,97783.00
2022-11-25T14:35:04.775Z,97794.00
2022-11-25T14:38:08.982Z,97793.69
2022-11-25T14:41:12.748Z,97804.03
2022-11-25T14:44:16.667Z,97797.16
2022-11-25T14:47:20.479Z,97800.94
2022-11-25T14:50:34.617Z,97804.50
2022-11-25T14:53:41.805Z,97807.34
2022-11-25T14:56:49.932Z,97805.31
2022-11-25T14:59:53.763Z,97820.69
2022-11-25T15:02:57.781Z,97825.06
2022-11-25T15:06:02.084Z,97835.06
2022-11-25T15:09:06.024Z,97840.34
2022-11-25T15:12:10.196Z,97850.16
2022-11-25T15:15:14.140Z,97852.78
2022-11-25T15:18:20.297Z,97849.63
2022-11-25T15:21:24.500Z,97850.28
2022-11-25T15:24:28.596Z,97857.53
2022-11-25T15:27:32.687Z,97848.50
2022-11-25T15:30:36.695Z,97866.56
2022-11-25T15:33:40.709Z,97862.63
2022-11-25T15:36:45.816Z,97870.75
2022-11-25T15:39:52.214Z,97879.78
2022-11-25T15:42:56.345Z,97873.72
2022-11-25T15:46:00.369Z,97887.25
2022-11-25T15:49:04.405Z,97890.03
2022-11-25T15:52:08.422Z,97894.88
2022-11-25T15:55:12.603Z,97900.44
2022-11-25T15:58:16.641Z,97908.59
2022-11-25T16:01:20.421Z,97905.81
2022-11-25T16:04:24.521Z,97914.69
2022-11-25T16:07:28.718Z,97908.00
2022-11-25T16:10:32.574Z,97915.22
2022-11-25T16:13:36.502Z,97920.56
2022-11-25T16:16:40.601Z,97923.72
2022-11-25T16:19:45.020Z,97923.22
2022-11-25T16:22:49.161Z,97930.66
2022-11-25T16:25:53.182Z,97941.19
2022-11-25T16:28:57.093Z,97942.78
2022-11-25T16:32:01.067Z,97946.91
2022-11-25T16:35:05.186Z,97955.75
2022-11-25T16:38:09.415Z,97957.81
2022-11-25T16:41:13.291Z,97969.09
2022-11-25T16:44:17.167Z,97969.28
2022-11-25T16:47:21.273Z,97973.22
2022-11-25T16:50:25.407Z,97990.19
2022-11-25T16:53:30.222Z,97988.50
2022-11-25T16:56:34.068Z,97988.06
2022-11-25T16:59:38.280Z,97990.53
2022-11-25T17:02:42.170Z,97999.22
2022-11-25T17:05:46.174Z,98008.22
2022-11-25T17:08:50.097Z,98007.03
2022-11-25T17:11:53.823Z,98004.47
2022-11-25T17:14:57.978Z,98013.53
2022-11-25T17:18:01.860Z,98015.00
2022-11-25T17:21:05.896Z,98016.47
2022-11-25T17:24:10.039Z,98020.53
2022-11-25T17:27:13.891Z,98026.69
2022-11-25T17:30:17.949Z,98034.22
2022-11-25T17:33:22.233Z,98031.84
2022-11-25T17:36:26.075Z,98035.88
2022-11-25T17:39:30.016Z,98040.84
2022-11-25T17:42:33.951Z,98041.28
2022-11-25T17:45:38.013Z,98040.75
2022-11-25T17:48:41.991Z,98037.06
2022-11-25T17:51:45.876Z,98044.84
2022-11-25T17:54:49.958Z,98052.03
2022-11-25T17:57:54.100Z,98058.72
2022-11-25T18:00:58.199Z,98065.38
2022-11-25T18:04:02.169Z,98061.34
2022-11-25T18:07:05.959Z,98069.97
2022-11-25T18:10:10.077Z,98059.50
2022-11-25T18:13:14.233Z,98067.22
2022-11-25T18:16:18.618Z,98071.38
2022-11-25T18:19:22.319Z,98077.59
2022-11-25T18:22:26.266Z,98084.00
2022-11-25T18:25:30.203Z,98090.38
2022-11-25T18:28:34.336Z,98084.75
2022-11-25T18:31:38.242Z,98097.00
2022-11-25T18:34:42.279Z,98093.41
2022-11-25T18:37:46.419Z,98102.84
2022-11-25T18:40:53.529Z,98107.22
2022-11-25T18:43:58.094Z,98110.56
2022-11-25T18:47:02.081Z,98107.94
2022-11-25T18:50:06.038Z,98121.84
2022-11-25T18:53:12.136Z,98117.53
2022-11-25T18:56:17.862Z,98122.16
2022-11-25T18:59:21.830Z,98134.91
2022-11-25T19:02:26.058Z,98144.25
2022-11-25T19:05:29.931Z,98136.06
2022-11-25T19:08:33.781Z,98137.19
2022-11-25T19:11:37.650Z,98153.66
2022-11-25T19:14:41.838Z,98149.03
2022-11-25T19:17:45.926Z,98151.25
2022-11-25T19:20:49.731Z,98155.28
2022-11-25T19:23:53.628Z,98155.50
2022-11-25T19:26:57.616Z,98154.91
2022-11-25T19:30:01.709Z,98169.22
2022-11-25T19:33:05.695Z,98177.69
2022-11-25T19:36:09.313Z,98171.19
2022-11-25T19:39:13.332Z,98178.94
2022-11-25T19:42:17.707Z,98186.72
2022-11-25T19:45:21.799Z,98186.56
2022-11-25T19:48:25.693Z,98193.59
2022-11-25T19:51:29.451Z,98195.75
2022-11-25T19:54:33.588Z,98212.56
2022-11-25T19:57:37.483Z,98216.50
2022-11-25T20:00:41.462Z,98221.56
2022-11-25T20:03:47.923Z,98230.25
2022-11-25T20:06:52.043Z,98232.88
2022-11-25T20:09:56.115Z,98241.31
2022-11-25T20:13:00.270Z,98240.75
2022-11-25T20:16:04.384Z,98241.75
2022-11-25T20:19:08.250Z,98248.44
2022-11-25T20:22:12.211Z,98247.44
2022-11-25T20:25:16.201Z,98256.13
2022-11-25T20:28:20.381Z,98256.50
2022-11-25T20:31:29.970Z,98262.19
2022-11-25T20:34:42.093Z,98263.81
2022-11-25T20:37:46.210Z,98265.22
2022-11-25T20:40:50.374Z,98269.06
2022-11-25T20:43:54.387Z,98277.72
2022-11-25T20:46:58.328Z,98278.13
2022-11-25T20:50:02.334Z,98277.34
2022-11-25T20:53:06.492Z,98283.41
2022-11-25T20:56:10.419Z,98287.06
2022-11-25T20:59:14.187Z,98286.84
2022-11-25T21:02:18.340Z,98291.06
2022-11-25T21:05:22.341Z,98286.63
2022-11-25T21:08:26.377Z,98285.84
2022-11-25T21:11:30.484Z,98291.91
2022-11-25T21:14:34.432Z,98288.88
2022-11-25T21:17:38.520Z,98294.94
2022-11-25T21:20:45.646Z,98294.34
2022-11-25T21:23:49.764Z,98301.81
2022-11-25T21:26:53.685Z,98295.72
2022-11-25T21:29:57.601Z,98301.00
2022-11-25T21:33:01.569Z,98306.66
2022-11-25T21:36:05.540Z,98308.66
2022-11-25T21:39:09.723Z,98317.34
2022-11-25T21:42:13.662Z,98316.38
2022-11-25T21:45:17.673Z,98309.69
2022-11-25T21:48:21.824Z,98314.75
2022-11-25T21:51:26.048Z,98323.03
2022-11-25T21:54:29.923Z,98328.09
2022-11-25T21:57:33.814Z,98321.00
2022-11-25T22:00:37.907Z,98323.84
2022-11-25T22:03:41.851Z,98325.47
2022-11-25T22:06:45.837Z,98324.25
2022-11-25T22:09:49.698Z,98319.38
2022-11-25T22:12:53.628Z,98326.25
2022-11-25T22:15:57.726Z,98334.28
2022-11-25T22:19:01.900Z,98339.09
2022-11-25T22:22:05.896Z,98347.19
2022-11-25T22:25:09.842Z,98349.75
2022-11-25T22:28:13.744Z,98348.44
2022-11-25T22:31:17.789Z,98349.31
2022-11-25T22:34:21.525Z,98344.16
2022-11-25T22:37:25.627Z,98366.50
2022-11-25T22:40:29.481Z,98366.31
2022-11-25T22:43:33.572Z,98354.91
2022-11-25T22:46:37.739Z,98368.00
2022-11-25T22:49:41.842Z,98366.16
2022-11-25T22:52:47.728Z,98369.59
2022-11-25T22:55:51.516Z,98367.97
2022-11-25T22:58:55.659Z,98381.31
2022-11-25T23:01:59.720Z,98381.31
2022-11-25T23:05:03.567Z,98376.84
2022-11-25T23:08:07.291Z,98377.44
2022-11-25T23:11:11.488Z,98376.75
2022-11-25T23:14:15.481Z,98380.97
2022-11-25T23:17:19.451Z,98383.72
2022-11-25T23:20:23.208Z,98381.53
2022-11-25T23:23:27.248Z,98384.97
2022-11-25T23:26:34.970Z,98390.13
2022-11-25T23:29:38.931Z,98389.81
2022-11-25T23:32:42.922Z,98388.84
2022-11-25T23:35:46.984Z,98396.78
2022-11-25T23:38:50.792Z,98390.41
2022-11-25T23:41:54.833Z,98392.44
2022-11-25T23:44:58.796Z,98395.13
2022-11-25T23:48:02.819Z,98394.78
2022-11-25T23:51:06.843Z,98393.69
2022-11-25T23:54:10.719Z,98398.03
2022-11-25T23:57:14.695Z,98404.25
